Latest Weather Observations for Melbourne Airport

IDV60801

Issued at 11:05 am EST Saturday 23 August 2014 (issued every 30 minutes, with the page automatically refreshed every 10 minutes)

About weather observations | Map of weather stations | Latest weather observations for VIC | Other Formats
Station Details ID: 086282 Name: MELBOURNE AIRPORT Lat: -37.67 Lon: 144.83 Height: 113.4 m
Data from the previous 72 hours. | See also: Recent months at Melbourne Airport
Date/Time
EST
Temp
°C
App
Temp
°C
Dew
Point
Rel
Hum
%
Delta-T
°C
Wind Press
QNH
hPa
Press
MSL
hPa
Rain
since 9 am
mm
Dir
 
Spd
km/h
Gust
km/h
Spd
kts
Gust
kts
23/11:00am 15.5 8.7 6.9 56 4.2 NNE 32 41 17 22 1028.1 1028.2 0.0
23/10:37am 15.3 8.3 6.9 57 4.1 N 33 52 18 28 1028.3 1028.4 0.0
23/10:30am 15.0 7.3 7.0 59 3.9 NNE 37 46 20 25 1028.4 1028.5 0.0
23/10:00am 14.4 7.6 6.8 60 3.7 N 32 41 17 22 1028.5 1028.6 0.0
23/09:44am 13.8 6.9 6.3 60 3.6 N 32 57 17 31 1028.7 1028.9 0.0
23/09:30am 13.8 7.7 6.5 61 3.5 N 28 35 15 19 1028.8 1029.0 0.0
23/09:00am 12.8 6.9 6.0 63 3.2 N 26 33 14 18 1029.0 1029.2 0.0
23/08:00am 10.3 5.7 5.7 73 2.1 N 19 24 10 13 1028.8 1029.0 0.0
23/07:30am 8.5 4.4 4.4 75 1.8 N 15 19 8 10 1028.5 1028.6 0.0
23/07:00am 6.2 2.0 3.6 83 1.1 N 15 17 8 9 1028.3 1028.4 0.0
23/06:30am 5.7 1.5 3.6 86 0.9 N 15 20 8 11 1028.0 1028.1 0.0
23/06:00am 5.9 1.7 3.8 86 0.9 N 15 17 8 9 1027.8 1027.9 0.0
23/05:30am 6.8 2.7 4.2 83 1.1 N 15 17 8 9 1027.8 1027.9 0.0
23/05:00am 7.4 2.9 4.4 81 1.3 N 17 19 9 10 1027.5 1027.6 0.0
23/04:30am 7.1 2.2 4.3 82 1.2 N 19 19 10 10 1027.3 1027.4 0.0
23/04:00am 7.2 3.1 4.4 82 1.2 N 15 17 8 9 1027.4 1027.5 0.0
23/03:30am 7.8 3.4 4.6 80 1.4 N 17 19 9 10 1027.5 1027.6 0.0
23/03:00am 7.1 2.2 4.1 81 1.3 N 19 20 10 11 1027.6 1027.7 0.0
23/02:30am 7.4 2.5 4.2 80 1.4 N 19 20 10 11 1027.9 1028.0 0.0
23/02:00am 7.2 2.7 4.2 81 1.3 N 17 19 9 10 1028.0 1028.1 0.0
23/01:30am 6.7 1.8 4.1 83 1.1 N 19 20 10 11 1028.1 1028.2 0.0
23/01:00am 7.3 1.9 4.3 81 1.3 N 22 26 12 14 1028.1 1028.2 0.0
23/12:30am 8.1 3.2 4.2 76 1.7 N 19 20 10 11 1028.1 1028.2 0.0
23/12:00am 8.0 2.9 4.3 77 1.6 N 20 24 11 13 1028.1 1028.2 0.0
 
Date/Time
EST
Temp
°C
App
Temp
°C
Dew
Point
Rel
Hum
%
Delta-T
°C
Wind Press
QNH
hPa
Press
MSL
hPa
Rain
since 9 am
mm
Dir
 
Spd
km/h
Gust
km/h
Spd
kts
Gust
kts
22/11:30pm 8.4 3.6 4.5 76 1.7 N 19 20 10 11 1028.3 1028.4 0.0
22/11:00pm 10.0 5.2 4.4 68 2.5 N 19 22 10 12 1028.4 1028.5 0.0
22/10:30pm 9.1 4.3 4.8 74 1.9 N 19 20 10 11 1028.5 1028.6 0.0
22/10:00pm 8.6 4.2 4.8 77 1.7 N 17 19 9 10 1028.6 1028.7 0.0
22/09:30pm 9.6 5.1 4.4 70 2.3 N 17 19 9 10 1028.8 1029.0 0.0
22/09:00pm 8.9 4.8 4.4 73 2.0 N 15 19 8 10 1028.8 1029.0 0.0
22/08:30pm 11.8 7.7 4.2 59 3.4 N 15 19 8 10 1028.8 1029.0 0.0
22/08:00pm 11.5 8.2 4.4 61 3.2 N 11 13 6 7 1028.7 1028.9 0.0
22/07:30pm 10.5 7.2 4.7 67 2.6 N 11 15 6 8 1028.6 1028.7 0.0
22/07:00pm 12.6 9.3 4.5 58 3.7 N 11 15 6 8 1028.5 1028.6 0.0
22/06:30pm 14.2 10.8 3.9 50 4.7 N 11 15 6 8 1028.2 1028.3 0.0
22/06:00pm 13.9 10.5 3.8 50 4.6 N 11 15 6 8 1028.0 1028.1 0.0
22/05:30pm 15.8 12.2 2.7 41 5.9 N 11 13 6 7 1028.0 1028.1 0.0
22/05:00pm 16.7 12.8 3.5 41 6.1 N 13 15 7 8 1027.9 1028.0 0.0
22/04:30pm 17.6 13.1 2.1 35 7.0 N 15 20 8 11 1027.8 1027.9 0.0
22/04:00pm 17.9 13.0 2.3 35 7.1 N 17 20 9 11 1027.7 1027.8 0.0
22/03:30pm 18.3 14.0 3.5 37 7.0 NNE 15 19 8 10 1027.7 1027.8 0.0
22/03:00pm 18.4 14.6 1.5 32 7.6 NNE 11 19 6 10 1027.9 1028.0 0.0
22/02:30pm 18.3 14.2 4.1 39 6.8 N 15 22 8 12 1028.2 1028.3 0.0
22/02:00pm 18.5 14.4 4.5 39 6.7 N 15 19 8 10 1028.4 1028.5 0.0
22/01:30pm 16.8 12.0 4.5 44 5.8 N 19 28 10 15 1028.8 1029.0 0.0
22/01:00pm 18.0 13.0 3.7 38 6.7 NNW 19 26 10 14 1029.1 1029.3 0.0
22/12:30pm 17.8 12.8 4.5 41 6.4 N 20 30 11 16 1029.4 1029.6 0.0
22/12:00pm 17.4 11.7 4.8 43 6.0 N 24 33 13 18 1029.9 1030.1 0.0
22/11:30am 17.3 11.3 5.2 45 5.8 N 26 33 14 18 1030.3 1030.5 0.0
22/11:00am 16.6 11.3 6.6 51 4.9 N 24 32 13 17 1030.6 1030.8 0.0
22/10:30am 16.1 11.6 7.0 54 4.5 N 20 30 11 16 1030.9 1031.1 0.0
22/10:00am 15.1 10.7 6.7 57 4.1 NNE 19 28 10 15 1031.0 1031.2 0.0
22/09:30am 13.9 10.2 6.1 59 3.7 N 15 19 8 10 1031.2 1031.4 0.0
22/09:00am 13.0 8.9 6.0 62 3.3 N 17 19 9 10 1031.2 1031.4 0.0
22/08:30am 11.3 7.1 5.7 68 2.6 N 17 20 9 11 1031.1 1031.3 0.0
22/08:00am 10.2 5.4 4.9 69 2.4 N 19 24 10 13 1030.9 1031.1 0.0
22/07:30am 9.0 3.6 4.5 73 2.0 N 22 26 12 14 1030.6 1030.8 0.0
22/07:00am 7.2 1.8 4.4 82 1.2 N 22 26 12 14 1030.2 1030.4 0.0
22/06:30am 7.2 2.2 4.7 84 1.1 N 20 24 11 13 1030.1 1030.3 0.0
22/06:00am 6.7 1.3 4.6 86 0.9 N 22 24 12 13 1029.9 1030.1 0.0
22/05:30am 6.6 2.2 4.8 88 0.8 N 17 20 9 11 1029.8 1030.0 0.0
22/05:00am 6.6 2.6 4.8 88 0.8 N 15 17 8 9 1029.6 1029.8 0.0
22/04:30am 6.4 2.3 4.3 86 0.9 N 15 19 8 10 1029.5 1029.7 0.0
22/04:00am 5.8 1.0 4.4 91 0.6 N 19 20 10 11 1029.3 1029.5 0.0
22/03:30am 6.6 1.2 4.5 86 0.9 N 22 26 12 14 1029.2 1029.4 0.0
22/03:00am 7.0 2.2 4.7 85 1.0 N 19 22 10 12 1029.2 1029.4 0.0
22/02:30am 7.6 2.7 5.1 84 1.1 N 20 24 11 13 1029.4 1029.6 0.0
22/02:00am 8.4 3.7 5.3 81 1.4 N 19 20 10 11 1029.5 1029.7 0.0
22/01:30am 8.0 3.3 5.3 83 1.2 N 19 19 10 10 1029.5 1029.7 0.0
22/01:00am 7.4 2.7 5.1 85 1.0 N 19 22 10 12 1029.4 1029.6 0.0
22/12:30am 7.5 2.2 5.2 85 1.0 N 22 26 12 14 1029.3 1029.5 0.0
22/12:00am 8.3 4.0 5.4 82 1.3 NNE 17 24 9 13 1029.3 1029.5 0.0
 
Date/Time
EST
Temp
°C
App
Temp
°C
Dew
Point
Rel
Hum
%
Delta-T
°C
Wind Press
QNH
hPa
Press
MSL
hPa
Rain
since 9 am
mm
Dir
 
Spd
km/h
Gust
km/h
Spd
kts
Gust
kts
21/11:30pm 10.3 5.2 6.0 75 2.0 N 22 28 12 15 1029.3 1029.5 0.0
21/11:00pm 9.0 4.5 5.9 81 1.4 N 19 22 10 12 1029.3 1029.5 0.0
21/10:30pm 8.8 4.3 6.2 84 1.2 N 19 22 10 12 1029.4 1029.6 0.0
21/10:00pm 10.0 6.3 6.3 78 1.7 N 15 19 8 10 1029.5 1029.7 0.0
21/09:30pm 9.1 5.9 6.7 85 1.1 N 13 17 7 9 1029.5 1029.7 0.0
21/09:00pm 10.9 7.0 6.9 76 1.9 N 17 19 9 10 1029.3 1029.5 0.0
21/08:30pm 9.7 6.5 6.7 81 1.4 N 13 17 7 9 1029.0 1029.2 0.0
21/08:00pm 9.2 5.9 6.4 83 1.3 N 13 15 7 8 1028.9 1029.1 0.0
21/07:30pm 10.4 7.1 6.6 77 1.8 N 13 17 7 9 1028.7 1028.9 0.0
21/07:00pm 10.7 7.1 6.7 76 1.9 N 15 15 8 8 1028.4 1028.5 0.0
21/06:30pm 10.9 7.7 6.9 76 1.9 N 13 17 7 9 1028.2 1028.3 0.0
21/06:00pm 11.5 8.7 6.9 73 2.2 N 11 15 6 8 1027.9 1028.0 0.0
21/05:30pm 14.0 10.5 7.0 62 3.4 NNE 15 24 8 13 1027.6 1027.7 0.0
21/05:00pm 15.1 10.6 6.2 55 4.3 NNE 19 26 10 14 1027.3 1027.4 0.0
21/04:30pm 15.8 10.2 5.6 50 4.9 N 24 30 13 16 1027.0 1027.1 0.0
21/04:00pm 15.7 11.0 5.9 52 4.7 N 20 32 11 17 1026.8 1027.0 0.0
21/03:30pm 15.6 10.9 6.1 53 4.6 NNE 20 32 11 17 1026.8 1027.0 0.0
21/03:00pm 16.2 11.0 5.6 49 5.1 N 22 30 12 16 1026.8 1027.0 0.0
21/02:30pm 16.3 10.8 6.0 50 5.0 N 24 33 13 18 1026.8 1027.0 0.0
21/02:00pm 16.1 9.9 6.0 51 4.9 N 28 37 15 20 1027.0 1027.1 0.0
21/01:30pm 15.7 11.1 6.7 55 4.4 NNE 20 28 11 15 1027.2 1027.3 0.0
21/01:00pm 14.9 10.6 6.9 58 3.9 NE 19 26 10 14 1027.5 1027.6 0.0
21/12:30pm 14.6 10.1 6.8 59 3.8 NNE 20 30 11 16 1028.0 1028.1 0.0
21/12:00pm 14.2 11.0 7.0 62 3.5 N 13 19 7 10 1028.3 1028.4 0.0
21/11:30am 13.7 10.1 6.9 63 3.3 NNE 15 28 8 15 1028.7 1028.9 0.0
21/11:00am 13.1 11.4 7.6 69 2.7 NNE 6 13 3 7 1029.0 1029.2 0.0
21/10:30am 12.0 9.7 7.4 73 2.2 N 9 13 5 7 1029.3 1029.5 0.0
21/10:00am 10.8 8.9 7.5 80 1.6 N 7 9 4 5 1029.4 1029.6 0.0
21/09:30am 9.8 8.0 7.3 84 1.2 W 6 7 3 4 1029.5 1029.7 0.0
21/09:00am 9.3 7.5 7.2 87 1.0 WNW 6 9 3 5 1029.5 1029.7 0.0
21/08:30am 8.4 6.0 6.9 90 0.7 W 9 9 5 5 1029.3 1029.5 0.0
21/08:00am 7.7 5.2 6.6 93 0.5 WNW 9 11 5 6 1029.1 1029.3 0.0
21/07:30am 6.7 4.1 6.0 95 0.3 W 9 11 5 6 1028.7 1028.9 0.0
21/07:00am 5.8 3.0 5.3 97 0.2 WNW 9 11 5 6 1028.4 1028.5 0.0
21/06:30am 6.5 5.6 6.1 97 0.2 CALM 0 0 0 0 1028.2 1028.3 0.0
21/06:00am 7.3 6.5 6.6 95 0.3 CALM 0 0 0 0 1028.0 1028.1 0.0
21/05:30am 7.6 5.1 6.7 94 0.4 WNW 9 11 5 6 1028.0 1028.1 0.0
21/05:00am 7.7 5.3 6.8 94 0.4 W 9 11 5 6 1027.9 1028.0 0.0
21/04:30am 7.6 5.1 6.7 94 0.4 W 9 11 5 6 1027.9 1028.0 0.0
21/04:00am 7.5 5.0 6.6 94 0.4 WSW 9 11 5 6 1027.7 1027.8 0.0
21/03:30am 7.5 4.6 6.4 93 0.5 W 11 13 6 7 1027.6 1027.7 0.0
21/03:00am 7.5 4.6 6.6 94 0.4 W 11 11 6 6 1027.7 1027.8 0.0
21/02:30am 7.3 4.4 6.6 95 0.3 W 11 11 6 6 1027.8 1027.9 0.0
21/02:00am 7.1 4.1 6.2 94 0.4 W 11 13 6 7 1027.8 1027.9 0.0
21/01:30am 6.7 4.0 5.8 94 0.4 W 9 9 5 5 1027.8 1027.9 0.0
21/01:00am 7.4 4.8 6.3 93 0.5 W 9 11 5 6 1027.8 1027.9 0.0
21/12:30am 7.5 6.3 6.4 93 0.5 WSW 2 7 1 4 1027.9 1028.0 0.0
21/12:00am 7.6 6.8 6.3 91 0.6 CALM 0 0 0 0 1027.9 1028.0 0.0
 
Date/Time
EST
Temp
°C
App
Temp
°C
Dew
Point
Rel
Hum
%
Delta-T
°C
Wind Press
QNH
hPa
Press
MSL
hPa
Rain
since 9 am
mm
Dir
 
Spd
km/h
Gust
km/h
Spd
kts
Gust
kts
20/11:30pm 7.6 5.0 6.3 91 0.6 SSW 9 11 5 6 1028.0 1028.1 0.0
20/11:00pm 8.1 5.9 6.4 89 0.8 SSW 7 9 4 5 1028.0 1028.1 0.0
20/10:30pm 9.2 6.3 6.4 83 1.3 S 11 13 6 7 1028.1 1028.2 0.0
20/10:00pm 9.4 6.0 5.9 79 1.6 S 13 17 7 9 1028.3 1028.4 0.0
20/09:30pm 9.6 6.5 5.7 76 1.8 S 11 13 6 7 1028.3 1028.4 0.0
20/09:00pm 9.7 7.1 6.0 78 1.7 S 9 11 5 6 1028.2 1028.3 0.0
20/08:30pm 9.9 6.5 5.8 75 1.9 S 13 17 7 9 1028.2 1028.3 0.0
20/08:00pm 10.0 6.3 4.6 69 2.4 S 13 17 7 9 1028.1 1028.2 0.0
20/07:30pm 10.0 7.0 3.9 66 2.7 S 9 11 5 6 1028.1 1028.2 0.0
20/07:00pm 10.1 6.7 4.0 66 2.7 S 11 13 6 7 1027.9 1028.0 0.0
20/06:30pm 10.2 6.1 4.1 66 2.7 S 15 17 8 9 1027.8 1027.9 0.0
20/06:00pm 10.4 6.6 4.1 65 2.8 S 13 17 7 9 1027.5 1027.6 0.0
20/05:30pm 10.5 6.9 5.0 69 2.5 S 13 17 7 9 1027.1 1027.2 0.0
20/05:00pm 10.7 6.8 5.5 70 2.4 S 15 19 8 10 1026.8 1027.0 0.0
20/04:30pm 10.9 6.2 5.0 67 2.7 SSE 19 22 10 12 1026.6 1026.8 0.0
20/04:00pm 11.2 6.6 3.8 60 3.3 SSE 17 20 9 11 1026.5 1026.7 0.0
20/03:30pm 11.6 7.1 4.0 59 3.4 SSE 17 24 9 13 1026.3 1026.5 0.0
20/03:00pm 12.0 7.3 2.9 53 4.0 S 17 19 9 10 1026.2 1026.4 0.0
20/02:30pm 12.1 7.8 3.0 53 4.0 SSE 15 20 8 11 1026.1 1026.3 0.0
20/02:00pm 11.9 7.2 3.0 54 3.9 SSE 17 24 9 13 1026.1 1026.3 0.0
20/01:30pm 12.1 8.1 3.0 53 4.0 S 13 19 7 10 1026.1 1026.3 0.0
20/01:00pm 11.5 7.5 3.0 56 3.7 SSE 13 19 7 10 1026.4 1026.6 0.0
20/12:30pm 11.6 7.0 3.5 57 3.6 S 17 20 9 11 1026.6 1026.8 0.0
20/12:00pm 11.2 6.6 3.5 59 3.4 SSE 17 22 9 12 1027.1 1027.2 0.0
20/11:30am 10.9 6.4 4.2 63 3.0 SSE 17 19 9 10 1027.3 1027.4 0.0

Other Formats:

Comma delimited format used in spreadsheet applications
http://www.bom.gov.au/fwo/IDV60801/IDV60801.94866.axf

JavaScript Object Notation format (JSON) in row-major order
http://www.bom.gov.au/fwo/IDV60801/IDV60801.94866.json